sensor_id;sensor_type;location;lat;lon;timestamp;P1;durP1;ratioP1;P2;durP2;ratioP2
59338;SDS011;45117;50.960;5.500;2023-06-24T00:01:39;15.20;;;9.43;;
59338;SDS011;45117;50.960;5.500;2023-06-24T00:04:10;13.38;;;8.85;;
59338;SDS011;45117;50.960;5.500;2023-06-24T00:06:40;14.43;;;9.20;;
59338;SDS011;45117;50.960;5.500;2023-06-24T00:09:07;11.27;;;8.70;;
59338;SDS011;45117;50.960;5.500;2023-06-24T00:11:35;13.43;;;9.88;;
59338;SDS011;45117;50.960;5.500;2023-06-24T00:14:11;12.98;;;9.75;;
59338;SDS011;45117;50.960;5.500;2023-06-24T00:16:41;13.82;;;8.52;;
59338;SDS011;45117;50.960;5.500;2023-06-24T00:19:08;15.52;;;9.85;;
59338;SDS011;45117;50.960;5.500;2023-06-24T00:21:36;15.10;;;10.10;;
59338;SDS011;45117;50.960;5.500;2023-06-24T00:24:03;11.35;;;9.73;;
59338;SDS011;45117;50.960;5.500;2023-06-24T00:26:31;14.10;;;9.98;;
59338;SDS011;45117;50.960;5.500;2023-06-24T00:28:58;13.20;;;10.43;;
59338;SDS011;45117;50.960;5.500;2023-06-24T00:31:25;18.88;;;13.85;;
59338;SDS011;45117;50.960;5.500;2023-06-24T00:33:52;14.25;;;10.57;;
59338;SDS011;45117;50.960;5.500;2023-06-24T00:36:21;14.23;;;10.68;;
59338;SDS011;45117;50.960;5.500;2023-06-24T00:38:59;14.38;;;11.02;;
59338;SDS011;45117;50.960;5.500;2023-06-24T00:41:28;13.50;;;10.35;;
59338;SDS011;45117;50.960;5.500;2023-06-24T00:43:57;14.05;;;10.88;;
59338;SDS011;45117;50.960;5.500;2023-06-24T00:46:25;11.55;;;8.98;;
59338;SDS011;45117;50.960;5.500;2023-06-24T00:48:52;14.15;;;10.57;;
59338;SDS011;45117;50.960;5.500;2023-06-24T00:51:20;14.75;;;10.30;;
59338;SDS011;45117;50.960;5.500;2023-06-24T00:53:51;15.38;;;10.13;;
59338;SDS011;45117;50.960;5.500;2023-06-24T00:56:24;17.73;;;11.00;;
59338;SDS011;45117;50.960;5.500;2023-06-24T00:58:54;15.57;;;11.05;;
59338;SDS011;45117;50.960;5.500;2023-06-24T01:01:22;13.55;;;10.80;;
59338;SDS011;45117;50.960;5.500;2023-06-24T01:03:50;14.98;;;10.48;;
59338;SDS011;45117;50.960;5.500;2023-06-24T01:06:17;15.55;;;10.35;;
59338;SDS011;45117;50.960;5.500;2023-06-24T01:08:44;12.60;;;9.65;;
59338;SDS011;45117;50.960;5.500;2023-06-24T01:11:15;13.20;;;10.23;;
59338;SDS011;45117;50.960;5.500;2023-06-24T01:13:44;14.48;;;10.93;;
59338;SDS011;45117;50.960;5.500;2023-06-24T01:16:17;14.75;;;11.38;;
59338;SDS011;45117;50.960;5.500;2023-06-24T01:18:51;15.85;;;11.65;;
59338;SDS011;45117;50.960;5.500;2023-06-24T01:21:27;15.00;;;12.18;;
59338;SDS011;45117;50.960;5.500;2023-06-24T01:24:08;19.00;;;12.25;;
59338;SDS011;45117;50.960;5.500;2023-06-24T01:32:47;18.48;;;13.30;;
59338;SDS011;45117;50.960;5.500;2023-06-24T01:35:19;18.45;;;12.50;;
59338;SDS011;45117;50.960;5.500;2023-06-24T01:37:52;18.85;;;12.70;;
59338;SDS011;45117;50.960;5.500;2023-06-24T01:40:27;15.15;;;11.90;;
59338;SDS011;45117;50.960;5.500;2023-06-24T01:42:59;14.23;;;11.43;;
59338;SDS011;45117;50.960;5.500;2023-06-24T01:45:32;14.80;;;12.00;;
59338;SDS011;45117;50.960;5.500;2023-06-24T01:48:05;15.82;;;12.00;;
59338;SDS011;45117;50.960;5.500;2023-06-24T01:50:35;15.18;;;11.98;;
59338;SDS011;45117;50.960;5.500;2023-06-24T01:53:04;16.45;;;12.30;;
59338;SDS011;45117;50.960;5.500;2023-06-24T01:55:32;22.85;;;12.57;;
59338;SDS011;45117;50.960;5.500;2023-06-24T01:58:07;15.85;;;12.35;;
59338;SDS011;45117;50.960;5.500;2023-06-24T02:00:43;18.15;;;12.75;;
59338;SDS011;45117;50.960;5.500;2023-06-24T02:03:14;16.63;;;12.48;;
59338;SDS011;45117;50.960;5.500;2023-06-24T02:05:42;16.55;;;11.40;;
59338;SDS011;45117;50.960;5.500;2023-06-24T02:08:10;15.52;;;11.90;;
59338;SDS011;45117;50.960;5.500;2023-06-24T02:10:39;18.13;;;12.38;;
59338;SDS011;45117;50.960;5.500;2023-06-24T02:13:07;15.55;;;11.07;;
59338;SDS011;45117;50.960;5.500;2023-06-24T02:15:36;15.38;;;10.35;;
59338;SDS011;45117;50.960;5.500;2023-06-24T02:18:05;17.95;;;12.85;;
59338;SDS011;45117;50.960;5.500;2023-06-24T02:20:35;22.60;;;12.60;;
59338;SDS011;45117;50.960;5.500;2023-06-24T02:23:04;14.63;;;10.85;;
59338;SDS011;45117;50.960;5.500;2023-06-24T02:25:34;17.58;;;12.50;;
59338;SDS011;45117;50.960;5.500;2023-06-24T02:28:04;17.30;;;11.80;;
59338;SDS011;45117;50.960;5.500;2023-06-24T02:30:31;17.65;;;12.35;;
59338;SDS011;45117;50.960;5.500;2023-06-24T02:33:00;19.30;;;12.18;;
59338;SDS011;45117;50.960;5.500;2023-06-24T02:35:27;19.30;;;12.27;;
59338;SDS011;45117;50.960;5.500;2023-06-24T02:37:56;17.65;;;12.40;;
59338;SDS011;45117;50.960;5.500;2023-06-24T02:40:23;20.35;;;12.82;;
59338;SDS011;45117;50.960;5.500;2023-06-24T02:42:50;18.58;;;12.85;;
59338;SDS011;45117;50.960;5.500;2023-06-24T02:45:16;16.60;;;11.50;;
59338;SDS011;45117;50.960;5.500;2023-06-24T02:47:45;17.73;;;12.15;;
59338;SDS011;45117;50.960;5.500;2023-06-24T02:50:13;21.00;;;12.45;;
59338;SDS011;45117;50.960;5.500;2023-06-24T02:52:41;18.27;;;12.07;;
59338;SDS011;45117;50.960;5.500;2023-06-24T02:55:09;18.13;;;12.43;;
59338;SDS011;45117;50.960;5.500;2023-06-24T02:57:37;18.13;;;11.82;;
59338;SDS011;45117;50.960;5.500;2023-06-24T03:00:04;19.23;;;12.70;;
59338;SDS011;45117;50.960;5.500;2023-06-24T03:02:37;20.05;;;12.98;;
59338;SDS011;45117;50.960;5.500;2023-06-24T03:05:05;18.67;;;11.75;;
59338;SDS011;45117;50.960;5.500;2023-06-24T03:07:35;21.17;;;13.18;;
59338;SDS011;45117;50.960;5.500;2023-06-24T03:10:03;20.10;;;12.50;;
59338;SDS011;45117;50.960;5.500;2023-06-24T03:12:32;18.73;;;13.50;;
59338;SDS011;45117;50.960;5.500;2023-06-24T03:14:59;20.42;;;12.80;;
59338;SDS011;45117;50.960;5.500;2023-06-24T03:17:26;21.65;;;12.75;;
59338;SDS011;45117;50.960;5.500;2023-06-24T03:19:52;18.25;;;11.80;;
59338;SDS011;45117;50.960;5.500;2023-06-24T03:22:20;23.13;;;13.73;;
59338;SDS011;45117;50.960;5.500;2023-06-24T03:24:47;22.42;;;13.77;;
59338;SDS011;45117;50.960;5.500;2023-06-24T03:27:16;17.88;;;12.30;;
59338;SDS011;45117;50.960;5.500;2023-06-24T03:29:44;19.33;;;12.95;;
59338;SDS011;45117;50.960;5.500;2023-06-24T03:32:10;19.73;;;13.43;;
59338;SDS011;45117;50.960;5.500;2023-06-24T03:34:37;19.42;;;13.23;;
59338;SDS011;45117;50.960;5.500;2023-06-24T03:37:04;18.30;;;12.57;;
59338;SDS011;45117;50.960;5.500;2023-06-24T03:39:34;18.52;;;11.50;;
59338;SDS011;45117;50.960;5.500;2023-06-24T03:42:01;17.42;;;11.80;;
59338;SDS011;45117;50.960;5.500;2023-06-24T03:44:28;20.20;;;12.35;;
59338;SDS011;45117;50.960;5.500;2023-06-24T03:46:58;17.85;;;10.75;;
59338;SDS011;45117;50.960;5.500;2023-06-24T03:49:24;20.40;;;13.57;;
59338;SDS011;45117;50.960;5.500;2023-06-24T03:51:54;20.60;;;12.95;;
59338;SDS011;45117;50.960;5.500;2023-06-24T03:54:26;21.02;;;13.68;;
59338;SDS011;45117;50.960;5.500;2023-06-24T03:57:10;17.63;;;11.43;;
59338;SDS011;45117;50.960;5.500;2023-06-24T03:59:39;20.80;;;12.82;;
59338;SDS011;45117;50.960;5.500;2023-06-24T04:02:18;22.52;;;13.13;;
59338;SDS011;45117;50.960;5.500;2023-06-24T04:04:46;19.30;;;12.52;;
59338;SDS011;45117;50.960;5.500;2023-06-24T04:07:15;20.02;;;13.30;;
59338;SDS011;45117;50.960;5.500;2023-06-24T04:09:53;19.67;;;12.23;;
59338;SDS011;45117;50.960;5.500;2023-06-24T04:12:20;20.58;;;13.10;;
59338;SDS011;45117;50.960;5.500;2023-06-24T04:14:47;19.05;;;12.52;;
59338;SDS011;45117;50.960;5.500;2023-06-24T04:17:13;20.88;;;12.52;;
59338;SDS011;45117;50.960;5.500;2023-06-24T04:19:41;21.42;;;12.60;;
59338;SDS011;45117;50.960;5.500;2023-06-24T04:22:08;20.80;;;12.80;;
59338;SDS011;45117;50.960;5.500;2023-06-24T04:24:35;22.05;;;13.85;;
59338;SDS011;45117;50.960;5.500;2023-06-24T04:27:02;22.35;;;14.00;;
59338;SDS011;45117;50.960;5.500;2023-06-24T04:29:31;20.30;;;14.13;;
59338;SDS011;45117;50.960;5.500;2023-06-24T04:31:57;21.33;;;12.82;;
59338;SDS011;45117;50.960;5.500;2023-06-24T04:34:24;21.02;;;13.43;;
59338;SDS011;45117;50.960;5.500;2023-06-24T04:36:52;22.70;;;13.13;;
59338;SDS011;45117;50.960;5.500;2023-06-24T04:39:22;22.15;;;14.40;;
59338;SDS011;45117;50.960;5.500;2023-06-24T04:41:49;19.52;;;12.10;;
59338;SDS011;45117;50.960;5.500;2023-06-24T04:44:15;17.92;;;11.43;;
59338;SDS011;45117;50.960;5.500;2023-06-24T04:46:42;18.40;;;11.85;;
59338;SDS011;45117;50.960;5.500;2023-06-24T04:49:09;15.20;;;10.65;;
59338;SDS011;45117;50.960;5.500;2023-06-24T04:51:35;19.40;;;10.38;;
59338;SDS011;45117;50.960;5.500;2023-06-24T04:54:04;17.98;;;10.90;;
59338;SDS011;45117;50.960;5.500;2023-06-24T04:56:31;14.75;;;10.15;;
59338;SDS011;45117;50.960;5.500;2023-06-24T04:59:01;17.98;;;10.57;;
59338;SDS011;45117;50.960;5.500;2023-06-24T05:01:27;15.27;;;10.45;;
59338;SDS011;45117;50.960;5.500;2023-06-24T05:03:54;18.40;;;11.25;;
59338;SDS011;45117;50.960;5.500;2023-06-24T05:06:21;16.25;;;10.52;;
59338;SDS011;45117;50.960;5.500;2023-06-24T05:08:47;15.65;;;10.27;;
59338;SDS011;45117;50.960;5.500;2023-06-24T05:11:15;17.48;;;10.50;;
59338;SDS011;45117;50.960;5.500;2023-06-24T05:13:42;19.70;;;9.55;;
59338;SDS011;45117;50.960;5.500;2023-06-24T05:16:09;14.10;;;9.38;;
59338;SDS011;45117;50.960;5.500;2023-06-24T05:18:35;14.77;;;9.02;;
59338;SDS011;45117;50.960;5.500;2023-06-24T05:21:02;14.45;;;8.80;;
59338;SDS011;45117;50.960;5.500;2023-06-24T05:23:29;14.45;;;8.93;;
59338;SDS011;45117;50.960;5.500;2023-06-24T05:25:55;13.13;;;8.40;;
59338;SDS011;45117;50.960;5.500;2023-06-24T05:28:23;11.43;;;7.43;;
59338;SDS011;45117;50.960;5.500;2023-06-24T05:30:50;13.98;;;7.20;;
59338;SDS011;45117;50.960;5.500;2023-06-24T05:33:17;11.05;;;7.30;;
59338;SDS011;45117;50.960;5.500;2023-06-24T05:35:45;9.40;;;6.18;;
59338;SDS011;45117;50.960;5.500;2023-06-24T05:38:14;13.05;;;6.30;;
59338;SDS011;45117;50.960;5.500;2023-06-24T05:40:41;9.82;;;6.53;;
59338;SDS011;45117;50.960;5.500;2023-06-24T05:43:10;8.77;;;5.43;;
59338;SDS011;45117;50.960;5.500;2023-06-24T05:45:38;6.68;;;5.28;;
59338;SDS011;45117;50.960;5.500;2023-06-24T05:48:05;9.30;;;5.90;;
59338;SDS011;45117;50.960;5.500;2023-06-24T05:50:32;7.85;;;5.20;;
59338;SDS011;45117;50.960;5.500;2023-06-24T05:53:01;8.90;;;5.05;;
59338;SDS011;45117;50.960;5.500;2023-06-24T05:55:28;7.40;;;4.60;;
59338;SDS011;45117;50.960;5.500;2023-06-24T05:57:55;7.55;;;5.18;;
59338;SDS011;45117;50.960;5.500;2023-06-24T06:00:24;7.95;;;5.00;;
59338;SDS011;45117;50.960;5.500;2023-06-24T06:02:54;7.93;;;4.50;;
59338;SDS011;45117;50.960;5.500;2023-06-24T06:05:20;7.60;;;4.10;;
59338;SDS011;45117;50.960;5.500;2023-06-24T06:07:47;7.80;;;3.88;;
59338;SDS011;45117;50.960;5.500;2023-06-24T06:10:14;5.85;;;3.63;;
59338;SDS011;45117;50.960;5.500;2023-06-24T06:12:45;9.80;;;4.40;;
59338;SDS011;45117;50.960;5.500;2023-06-24T06:15:15;9.63;;;4.22;;
59338;SDS011;45117;50.960;5.500;2023-06-24T06:17:46;8.13;;;3.70;;
59338;SDS011;45117;50.960;5.500;2023-06-24T06:20:14;5.13;;;3.40;;
59338;SDS011;45117;50.960;5.500;2023-06-24T06:22:44;6.15;;;3.70;;
59338;SDS011;45117;50.960;5.500;2023-06-24T06:25:12;6.47;;;3.47;;
59338;SDS011;45117;50.960;5.500;2023-06-24T06:27:39;10.50;;;3.72;;
59338;SDS011;45117;50.960;5.500;2023-06-24T06:30:08;5.05;;;2.95;;
59338;SDS011;45117;50.960;5.500;2023-06-24T06:32:35;5.13;;;3.05;;
59338;SDS011;45117;50.960;5.500;2023-06-24T06:35:03;7.82;;;3.53;;
59338;SDS011;45117;50.960;5.500;2023-06-24T06:37:33;4.57;;;2.88;;
59338;SDS011;45117;50.960;5.500;2023-06-24T06:40:00;5.05;;;3.20;;
59338;SDS011;45117;50.960;5.500;2023-06-24T06:42:31;4.40;;;2.90;;
59338;SDS011;45117;50.960;5.500;2023-06-24T06:44:57;5.85;;;2.60;;
59338;SDS011;45117;50.960;5.500;2023-06-24T06:47:24;4.15;;;2.63;;
59338;SDS011;45117;50.960;5.500;2023-06-24T06:49:51;4.22;;;2.92;;
59338;SDS011;45117;50.960;5.500;2023-06-24T06:52:18;5.50;;;2.85;;
59338;SDS011;45117;50.960;5.500;2023-06-24T06:54:46;5.35;;;2.95;;
59338;SDS011;45117;50.960;5.500;2023-06-24T06:57:12;6.35;;;2.90;;
59338;SDS011;45117;50.960;5.500;2023-06-24T06:59:39;4.10;;;2.55;;
59338;SDS011;45117;50.960;5.500;2023-06-24T07:02:07;6.20;;;2.80;;
59338;SDS011;45117;50.960;5.500;2023-06-24T07:04:34;6.00;;;2.60;;
59338;SDS011;45117;50.960;5.500;2023-06-24T07:07:02;5.68;;;2.80;;
59338;SDS011;45117;50.960;5.500;2023-06-24T07:09:29;4.35;;;2.40;;
59338;SDS011;45117;50.960;5.500;2023-06-24T07:11:58;7.63;;;2.75;;
59338;SDS011;45117;50.960;5.500;2023-06-24T07:14:25;4.50;;;2.30;;
59338;SDS011;45117;50.960;5.500;2023-06-24T07:16:52;3.10;;;2.17;;
59338;SDS011;45117;50.960;5.500;2023-06-24T07:19:19;4.03;;;2.08;;
59338;SDS011;45117;50.960;5.500;2023-06-24T07:21:46;4.13;;;2.22;;
59338;SDS011;45117;50.960;5.500;2023-06-24T07:24:14;3.33;;;1.98;;
59338;SDS011;45117;50.960;5.500;2023-06-24T07:26:41;3.72;;;2.05;;
59338;SDS011;45117;50.960;5.500;2023-06-24T07:29:10;2.80;;;1.95;;
59338;SDS011;45117;50.960;5.500;2023-06-24T07:31:36;5.75;;;2.42;;
59338;SDS011;45117;50.960;5.500;2023-06-24T07:34:03;4.80;;;2.20;;
59338;SDS011;45117;50.960;5.500;2023-06-24T07:36:30;6.47;;;2.30;;
59338;SDS011;45117;50.960;5.500;2023-06-24T07:38:57;3.75;;;2.20;;
59338;SDS011;45117;50.960;5.500;2023-06-24T07:41:24;4.90;;;2.60;;
59338;SDS011;45117;50.960;5.500;2023-06-24T07:43:51;3.50;;;1.73;;
59338;SDS011;45117;50.960;5.500;2023-06-24T07:46:19;4.75;;;1.90;;
59338;SDS011;45117;50.960;5.500;2023-06-24T07:48:46;3.13;;;2.03;;
59338;SDS011;45117;50.960;5.500;2023-06-24T07:51:13;5.50;;;2.13;;
59338;SDS011;45117;50.960;5.500;2023-06-24T07:53:40;5.57;;;2.00;;
59338;SDS011;45117;50.960;5.500;2023-06-24T07:56:06;2.72;;;1.90;;
59338;SDS011;45117;50.960;5.500;2023-06-24T07:58:33;2.53;;;1.90;;
59338;SDS011;45117;50.960;5.500;2023-06-24T08:01:02;3.85;;;1.75;;
59338;SDS011;45117;50.960;5.500;2023-06-24T08:03:33;3.67;;;1.80;;
59338;SDS011;45117;50.960;5.500;2023-06-24T08:05:59;2.90;;;1.83;;
59338;SDS011;45117;50.960;5.500;2023-06-24T08:08:26;2.08;;;1.60;;
59338;SDS011;45117;50.960;5.500;2023-06-24T08:10:52;2.90;;;1.98;;
59338;SDS011;45117;50.960;5.500;2023-06-24T08:13:19;2.95;;;1.80;;
59338;SDS011;45117;50.960;5.500;2023-06-24T08:15:46;4.07;;;1.70;;
59338;SDS011;45117;50.960;5.500;2023-06-24T08:18:12;2.17;;;1.60;;
59338;SDS011;45117;50.960;5.500;2023-06-24T08:20:42;3.17;;;1.80;;
59338;SDS011;45117;50.960;5.500;2023-06-24T08:23:09;3.50;;;1.73;;
59338;SDS011;45117;50.960;5.500;2023-06-24T08:25:36;4.88;;;1.80;;
59338;SDS011;45117;50.960;5.500;2023-06-24T08:28:03;2.50;;;1.60;;
59338;SDS011;45117;50.960;5.500;2023-06-24T08:30:30;3.90;;;1.70;;
59338;SDS011;45117;50.960;5.500;2023-06-24T08:32:57;2.28;;;1.63;;
59338;SDS011;45117;50.960;5.500;2023-06-24T08:35:23;3.33;;;1.63;;
59338;SDS011;45117;50.960;5.500;2023-06-24T08:37:53;2.42;;;1.48;;
59338;SDS011;45117;50.960;5.500;2023-06-24T08:40:20;2.38;;;1.60;;
59338;SDS011;45117;50.960;5.500;2023-06-24T08:42:47;2.92;;;1.65;;
59338;SDS011;45117;50.960;5.500;2023-06-24T08:45:14;2.80;;;1.60;;
59338;SDS011;45117;50.960;5.500;2023-06-24T08:47:41;5.90;;;1.75;;
59338;SDS011;45117;50.960;5.500;2023-06-24T08:50:11;2.17;;;1.60;;
59338;SDS011;45117;50.960;5.500;2023-06-24T08:52:41;2.22;;;1.48;;
59338;SDS011;45117;50.960;5.500;2023-06-24T08:55:12;2.85;;;1.80;;
59338;SDS011;45117;50.960;5.500;2023-06-24T08:57:42;2.40;;;1.23;;
59338;SDS011;45117;50.960;5.500;2023-06-24T09:00:09;3.08;;;1.30;;
59338;SDS011;45117;50.960;5.500;2023-06-24T09:02:37;2.53;;;1.70;;
59338;SDS011;45117;50.960;5.500;2023-06-24T09:05:04;2.25;;;1.60;;
59338;SDS011;45117;50.960;5.500;2023-06-24T09:07:32;2.45;;;1.58;;
59338;SDS011;45117;50.960;5.500;2023-06-24T09:10:01;4.20;;;1.63;;
59338;SDS011;45117;50.960;5.500;2023-06-24T09:12:30;2.35;;;1.60;;
59338;SDS011;45117;50.960;5.500;2023-06-24T09:14:58;4.00;;;1.60;;
59338;SDS011;45117;50.960;5.500;2023-06-24T09:17:33;3.60;;;1.58;;
59338;SDS011;45117;50.960;5.500;2023-06-24T09:20:11;3.05;;;1.20;;
59338;SDS011;45117;50.960;5.500;2023-06-24T09:22:39;1.85;;;1.33;;
59338;SDS011;45117;50.960;5.500;2023-06-24T09:25:07;1.90;;;1.30;;
59338;SDS011;45117;50.960;5.500;2023-06-24T09:27:35;1.77;;;1.40;;
59338;SDS011;45117;50.960;5.500;2023-06-24T09:30:04;2.92;;;1.38;;
59338;SDS011;45117;50.960;5.500;2023-06-24T09:32:45;2.13;;;1.50;;
59338;SDS011;45117;50.960;5.500;2023-06-24T09:35:12;2.70;;;1.60;;
59338;SDS011;45117;50.960;5.500;2023-06-24T09:37:39;2.40;;;1.40;;
59338;SDS011;45117;50.960;5.500;2023-06-24T09:40:06;3.10;;;1.50;;
59338;SDS011;45117;50.960;5.500;2023-06-24T09:42:36;1.60;;;1.48;;
59338;SDS011;45117;50.960;5.500;2023-06-24T09:45:06;2.65;;;1.58;;
59338;SDS011;45117;50.960;5.500;2023-06-24T09:47:33;3.83;;;1.80;;
59338;SDS011;45117;50.960;5.500;2023-06-24T09:50:01;2.45;;;1.60;;
59338;SDS011;45117;50.960;5.500;2023-06-24T09:52:33;2.42;;;1.73;;
59338;SDS011;45117;50.960;5.500;2023-06-24T09:55:02;2.28;;;1.58;;
59338;SDS011;45117;50.960;5.500;2023-06-24T09:57:29;2.70;;;1.77;;
59338;SDS011;45117;50.960;5.500;2023-06-24T09:59:59;2.63;;;1.70;;
59338;SDS011;45117;50.960;5.500;2023-06-24T10:02:27;3.30;;;1.70;;
59338;SDS011;45117;50.960;5.500;2023-06-24T10:04:55;4.30;;;1.50;;
59338;SDS011;45117;50.960;5.500;2023-06-24T10:07:22;2.70;;;1.80;;
59338;SDS011;45117;50.960;5.500;2023-06-24T10:09:49;2.13;;;1.48;;
59338;SDS011;45117;50.960;5.500;2023-06-24T10:12:16;2.10;;;1.77;;
59338;SDS011;45117;50.960;5.500;2023-06-24T10:14:42;1.80;;;1.65;;
59338;SDS011;45117;50.960;5.500;2023-06-24T10:17:11;3.10;;;1.77;;
59338;SDS011;45117;50.960;5.500;2023-06-24T10:19:38;2.70;;;1.70;;
59338;SDS011;45117;50.960;5.500;2023-06-24T10:22:09;2.30;;;1.50;;
59338;SDS011;45117;50.960;5.500;2023-06-24T10:24:37;4.20;;;1.83;;
59338;SDS011;45117;50.960;5.500;2023-06-24T10:27:07;3.80;;;2.03;;
59338;SDS011;45117;50.960;5.500;2023-06-24T10:29:35;3.83;;;2.00;;
59338;SDS011;45117;50.960;5.500;2023-06-24T10:32:06;3.33;;;2.00;;
59338;SDS011;45117;50.960;5.500;2023-06-24T10:34:38;2.85;;;1.83;;
59338;SDS011;45117;50.960;5.500;2023-06-24T10:37:13;2.40;;;2.00;;
59338;SDS011;45117;50.960;5.500;2023-06-24T10:39:55;2.65;;;1.90;;
59338;SDS011;45117;50.960;5.500;2023-06-24T10:42:31;2.90;;;2.00;;
59338;SDS011;45117;50.960;5.500;2023-06-24T10:45:01;3.40;;;1.90;;
59338;SDS011;45117;50.960;5.500;2023-06-24T10:47:39;2.30;;;1.80;;
59338;SDS011;45117;50.960;5.500;2023-06-24T10:50:11;2.47;;;1.90;;
59338;SDS011;45117;50.960;5.500;2023-06-24T10:52:44;3.42;;;2.22;;
59338;SDS011;45117;50.960;5.500;2023-06-24T10:55:24;2.90;;;1.77;;
59338;SDS011;45117;50.960;5.500;2023-06-24T10:57:54;4.47;;;1.80;;
59338;SDS011;45117;50.960;5.500;2023-06-24T11:00:43;5.00;;;1.70;;
59338;SDS011;45117;50.960;5.500;2023-06-24T11:03:12;3.30;;;2.00;;
59338;SDS011;45117;50.960;5.500;2023-06-24T11:06:06;3.58;;;1.73;;
59338;SDS011;45117;50.960;5.500;2023-06-24T11:08:46;2.58;;;1.75;;
59338;SDS011;45117;50.960;5.500;2023-06-24T11:11:20;3.60;;;2.10;;
59338;SDS011;45117;50.960;5.500;2023-06-24T11:13:48;3.60;;;1.77;;
59338;SDS011;45117;50.960;5.500;2023-06-24T11:16:22;4.78;;;1.88;;
59338;SDS011;45117;50.960;5.500;2023-06-24T11:18:50;4.35;;;2.10;;
59338;SDS011;45117;50.960;5.500;2023-06-24T11:21:39;2.17;;;1.65;;
59338;SDS011;45117;50.960;5.500;2023-06-24T11:24:06;2.40;;;1.80;;
59338;SDS011;45117;50.960;5.500;2023-06-24T11:26:36;2.90;;;1.90;;
59338;SDS011;45117;50.960;5.500;2023-06-24T11:29:12;2.30;;;1.95;;
59338;SDS011;45117;50.960;5.500;2023-06-24T11:31:50;3.15;;;1.80;;
59338;SDS011;45117;50.960;5.500;2023-06-24T11:34:17;3.10;;;1.95;;
59338;SDS011;45117;50.960;5.500;2023-06-24T11:36:46;3.90;;;1.90;;
59338;SDS011;45117;50.960;5.500;2023-06-24T11:39:25;2.88;;;1.77;;
59338;SDS011;45117;50.960;5.500;2023-06-24T11:41:53;3.13;;;1.92;;
59338;SDS011;45117;50.960;5.500;2023-06-24T11:44:24;2.97;;;1.85;;
59338;SDS011;45117;50.960;5.500;2023-06-24T11:46:52;2.28;;;1.73;;
59338;SDS011;45117;50.960;5.500;2023-06-24T11:49:20;2.45;;;1.75;;
59338;SDS011;45117;50.960;5.500;2023-06-24T11:51:49;2.78;;;1.92;;
59338;SDS011;45117;50.960;5.500;2023-06-24T11:54:20;2.58;;;1.85;;
59338;SDS011;45117;50.960;5.500;2023-06-24T11:56:51;1.80;;;1.50;;
59338;SDS011;45117;50.960;5.500;2023-06-24T11:59:19;3.05;;;1.80;;
59338;SDS011;45117;50.960;5.500;2023-06-24T12:01:53;2.20;;;1.60;;
59338;SDS011;45117;50.960;5.500;2023-06-24T12:07:47;1.85;;;1.38;;
59338;SDS011;45117;50.960;5.500;2023-06-24T12:10:47;2.97;;;1.65;;
59338;SDS011;45117;50.960;5.500;2023-06-24T12:13:47;2.92;;;1.42;;
59338;SDS011;45117;50.960;5.500;2023-06-24T12:22:29;2.78;;;1.60;;
59338;SDS011;45117;50.960;5.500;2023-06-24T12:25:25;2.03;;;1.48;;
59338;SDS011;45117;50.960;5.500;2023-06-24T12:28:28;1.60;;;1.38;;
59338;SDS011;45117;50.960;5.500;2023-06-24T12:31:41;1.98;;;1.40;;
59338;SDS011;45117;50.960;5.500;2023-06-24T12:41:23;2.42;;;1.60;;
59338;SDS011;45117;50.960;5.500;2023-06-24T12:44:21;1.65;;;1.30;;
59338;SDS011;45117;50.960;5.500;2023-06-24T12:46:57;3.20;;;1.50;;
59338;SDS011;45117;50.960;5.500;2023-06-24T12:49:33;3.75;;;1.60;;
59338;SDS011;45117;50.960;5.500;2023-06-24T12:52:20;2.88;;;1.40;;
59338;SDS011;45117;50.960;5.500;2023-06-24T12:55:01;2.05;;;1.33;;
59338;SDS011;45117;50.960;5.500;2023-06-24T13:00:34;2.05;;;1.40;;
59338;SDS011;45117;50.960;5.500;2023-06-24T13:03:03;3.17;;;1.50;;
59338;SDS011;45117;50.960;5.500;2023-06-24T13:05:41;3.65;;;1.88;;
59338;SDS011;45117;50.960;5.500;2023-06-24T13:08:19;1.88;;;1.42;;
59338;SDS011;45117;50.960;5.500;2023-06-24T13:10:46;2.38;;;1.70;;
59338;SDS011;45117;50.960;5.500;2023-06-24T13:13:20;2.30;;;1.52;;
59338;SDS011;45117;50.960;5.500;2023-06-24T13:15:47;2.45;;;1.70;;
59338;SDS011;45117;50.960;5.500;2023-06-24T13:18:24;2.92;;;1.55;;
59338;SDS011;45117;50.960;5.500;2023-06-24T13:21:05;2.30;;;1.30;;
59338;SDS011;45117;50.960;5.500;2023-06-24T13:23:40;2.75;;;1.58;;
59338;SDS011;45117;50.960;5.500;2023-06-24T13:26:09;2.38;;;1.42;;
59338;SDS011;45117;50.960;5.500;2023-06-24T13:28:38;2.38;;;1.50;;
59338;SDS011;45117;50.960;5.500;2023-06-24T13:31:09;2.13;;;1.35;;
59338;SDS011;45117;50.960;5.500;2023-06-24T13:33:42;1.83;;;1.50;;
59338;SDS011;45117;50.960;5.500;2023-06-24T13:36:13;2.20;;;1.40;;
59338;SDS011;45117;50.960;5.500;2023-06-24T13:38:57;2.05;;;1.40;;
59338;SDS011;45117;50.960;5.500;2023-06-24T13:41:24;1.55;;;1.40;;
59338;SDS011;45117;50.960;5.500;2023-06-24T13:43:58;2.25;;;1.50;;
59338;SDS011;45117;50.960;5.500;2023-06-24T13:46:29;1.50;;;1.40;;
59338;SDS011;45117;50.960;5.500;2023-06-24T13:48:58;1.70;;;1.23;;
59338;SDS011;45117;50.960;5.500;2023-06-24T13:51:25;2.03;;;1.55;;
59338;SDS011;45117;50.960;5.500;2023-06-24T13:53:53;2.00;;;1.45;;
59338;SDS011;45117;50.960;5.500;2023-06-24T13:56:22;2.00;;;1.40;;
59338;SDS011;45117;50.960;5.500;2023-06-24T13:58:54;2.20;;;1.30;;
59338;SDS011;45117;50.960;5.500;2023-06-24T14:01:22;3.45;;;1.30;;
59338;SDS011;45117;50.960;5.500;2023-06-24T14:03:50;2.63;;;1.60;;
59338;SDS011;45117;50.960;5.500;2023-06-24T14:09:30;3.58;;;1.38;;
59338;SDS011;45117;50.960;5.500;2023-06-24T14:12:02;2.13;;;1.40;;
59338;SDS011;45117;50.960;5.500;2023-06-24T14:14:30;3.05;;;1.63;;
59338;SDS011;45117;50.960;5.500;2023-06-24T14:17:00;2.30;;;1.58;;
59338;SDS011;45117;50.960;5.500;2023-06-24T14:19:40;2.28;;;1.50;;
59338;SDS011;45117;50.960;5.500;2023-06-24T14:22:10;2.53;;;1.58;;
59338;SDS011;45117;50.960;5.500;2023-06-24T14:24:37;2.25;;;1.60;;
59338;SDS011;45117;50.960;5.500;2023-06-24T14:27:11;3.10;;;1.40;;
59338;SDS011;45117;50.960;5.500;2023-06-24T14:29:46;1.75;;;1.27;;
59338;SDS011;45117;50.960;5.500;2023-06-24T14:32:20;2.45;;;1.42;;
59338;SDS011;45117;50.960;5.500;2023-06-24T14:35:06;1.92;;;1.38;;
59338;SDS011;45117;50.960;5.500;2023-06-24T14:37:34;2.42;;;1.50;;
59338;SDS011;45117;50.960;5.500;2023-06-24T14:40:19;2.53;;;1.60;;
59338;SDS011;45117;50.960;5.500;2023-06-24T14:42:46;2.40;;;1.60;;
59338;SDS011;45117;50.960;5.500;2023-06-24T14:45:22;1.83;;;1.52;;
59338;SDS011;45117;50.960;5.500;2023-06-24T14:47:51;4.35;;;1.60;;
59338;SDS011;45117;50.960;5.500;2023-06-24T14:50:18;1.50;;;1.30;;
59338;SDS011;45117;50.960;5.500;2023-06-24T14:52:45;2.83;;;1.40;;
59338;SDS011;45117;50.960;5.500;2023-06-24T14:55:12;2.05;;;1.58;;
59338;SDS011;45117;50.960;5.500;2023-06-24T14:57:39;2.35;;;1.73;;
59338;SDS011;45117;50.960;5.500;2023-06-24T15:00:06;1.50;;;1.20;;
59338;SDS011;45117;50.960;5.500;2023-06-24T15:05:20;1.90;;;1.45;;
59338;SDS011;45117;50.960;5.500;2023-06-24T15:07:47;1.85;;;1.48;;
59338;SDS011;45117;50.960;5.500;2023-06-24T15:10:14;2.60;;;1.60;;
59338;SDS011;45117;50.960;5.500;2023-06-24T15:12:41;1.83;;;1.25;;
59338;SDS011;45117;50.960;5.500;2023-06-24T15:15:08;2.72;;;1.38;;
59338;SDS011;45117;50.960;5.500;2023-06-24T15:17:35;2.33;;;1.50;;
59338;SDS011;45117;50.960;5.500;2023-06-24T15:20:07;2.05;;;1.40;;
59338;SDS011;45117;50.960;5.500;2023-06-24T15:22:34;1.60;;;1.10;;
59338;SDS011;45117;50.960;5.500;2023-06-24T15:25:01;2.10;;;1.35;;
59338;SDS011;45117;50.960;5.500;2023-06-24T15:27:28;2.25;;;1.48;;